Relevés horaires Oostende (Belgique)


Relevés horaires à Oostende - Mardi 05 Mai 2026
Heure UTC1 Température [°C] Vent [km/h] Hum. [%] Pres.4 [hPa] Visi. [Km] Nébu. [octa] Préc.5 [mm] Cond.
2m. Res. Ros. Dir.2 Vit. Moy. Raf.3
23:00 10.8 9.1 7.1 NNE 13.0 14.8 20.4 78 1010.6(0.2/3h) 30 7/8 -- --
22:00 11.0 9.2 7.1 NNE 14.8 14.8 22.2 77 1010.8(0.6/3h) 25 7/8 -- --
21:00 11.1 9.3 6.5 NNE 14.8 16.7 25.9 73 1010.8(0.6/3h) 30 7/8 -- --
20:00 11.2 9.2 6.3 NNE 16.7 16.7 24.1 72 1010.4(-0.1/3h) 30 7/8 -- --
19:00 11.6 9.9 5.9 N 14.8 16.7 24.1 68 1010.2(-0.2/3h) 30 7/8 -- --
18:00 12.1 10.5 5.9 N 14.8 -- -- 66 1010.1(-0.4/3h) 30 7/8 0/12h
--
17:00 12.3 10.8 6.6 N 14.8 14.8 20.4 68 1010.2(-0.7/3h) 30 7/8 -- --
16:00 12.3 10.8 7.1 N 14.8 16.7 22.2 71 1010.4(-0.8/3h) 30 7/8 -- --
15:00 13.5 12.1 8.3 N 16.7 16.7 22.2 71 1010.6(-0.6/3h) 30 7/8 -- --
14:00 12.7 11.3 8.1 N 14.8 14.8 22.2 74 1010.9(-0.6/3h) 30 7/8 -- --
13:00 13.1 12 8.3 N 13.0 16.7 22.2 73 1011.2(-0.4/3h) 30 7/8 -- --
12:00 13.1 11.8 7.6 N 14.8 -- -- 69 1011.2(-0.6/3h) 30 6/8 0/6h
--
11:00 13.7 12.5 7.8 NNE 14.8 14.8 20.4 68 1011.5(-0.3/3h) 30 6/8 -- --
10:00 12.3 10.8 6.8 NNE 14.8 16.7 22.2 69 1011.6(-0.2/3h) 30 7/8 -- --
09:00 12.3 10.8 7.2 NNE 14.8 14.8 20.4 71 1011.7(-0.2/3h) 30 7/8 -- --
08:00 12.0 10.9 7.4 NNE 11.1 13.0 18.5 73 1011.8(-0.5/3h) 30 7/8 -- --
07:00 11.8 10.4 7.3 NNE 13.0 13.0 18.5 74 1011.8(-0.7/3h) 30 7/8 -- --
06:00 11.1 9.8 7.2 N 11.1 -- -- 77 1011.9(-0.8/3h) 30 7/8 0/12h
--
05:00 10.8 9.7 7.5 N 9.3 9.3 14.8 80 1012.3(0.1/3h) 30 7/8 -- --
04:00 10.9 10.2 8.2 NNE 7.4 9.3 14.8 83 1012.5(-0.5/3h) 30 8/8 -- --
03:00 11.0 9.9 8.4 N 9.3 13.0 18.5 84 1012.7(-0.8/3h) 25 8/8 -- --
02:00 11.1 9.8 8.7 N 11.1 11.1 16.7 85 1012.3(-1.3/3h) 15 8/8 -- --
01:00 11.3 10 9.1 NNE 11.1 13.0 18.5 86 1013(-1.0/3h) 15 8/8 -- --
00:00 11.2 9.9 9.2 N 11.1 -- -- 87 1013.5(-0.7/3h) 15 8/8 0/6h
0/24h
--

1 Coordinated Universal Time. Actuellement il est 21:00 locale et 19:00 UTC.

2 Le vent souffle depuis la direction indiquée vers la direction oposée.

3 Les rafales max. sont disponible 40 min après l'heure du relevé.

4 Pour les stations d'altitude (plus de 600m) le géopotentiel du niveau le plus proche de la pression obligatoire est indiqué.

5 Les stations disposant d'un diffuseur peuvent indiquer "trace". Cela signifie que des précipitations ont touchés le sol mais que la quantité est inférieure à 0.1 mm.

Récapitulatif de la journée
Température [°C] Vent [km/h] Ensoleillement4 [h] Precipitations totale5 [mm] Pression [Hpa]
Min1 Max.2 Moy.3 Max. Min Max.
10.7 14.5 14.4 25.9 0 h 0 min 0 1010.1 1013.5

1 Température minimale relevée entre 18:00 UTC la veille et 18:00 UTC le jour donné.

2 Température maximale relevée entre 06:00 UTC le jour donné et 06:00 UTC le lendemain.

3 Vent moyen de la journée basé sur les relevés horaires.

4 Ensoleillement en heures relevé entre 06:00 UTC la veille et 06:00 UTC le jour donné.

5 Précipitations totales tombées entre 06:00 UTC la jour donné et 06:00 UTC le lendemain.

Graphiques horaires